Flight Track Log - Related Links

Times and Time Zones

All times are in EDT time to prevent confusion due to time zone crossing. See the N229WA flight status page for this flight to view local times or setup timezone preferences in your user account.


Time Position Orientation Groundspeed Altitude Reporting Facility
EDT Latitude Longitude Course Direction KTS MPH feet Rate Location/Type
Sun 08:32:08 PM 41.3610 -112.4275 322° Northwest 151 174 8,400  Level FlightAware ADS-B (KBTF)
Sun 08:32:30 PM 41.3726 -112.4398 322° Northwest 150 173 8,400  Level FlightAware ADS-B (KBTF)
Sun 08:32:50 PM 41.3835 -112.4515 320° Northwest 151 174 8,400  Level FlightAware ADS-B (KBTF)
Sun 08:33:09 PM 41.3941 -112.4634 319° Northwest 150 173 8,400  Level FlightAware ADS-B (KBTF)
Sun 08:33:29 PM 41.4055 -112.4758 318° Northwest 152 175 8,400 -150 Level FlightAware ADS-B (KBTF)
Sun 08:33:49 PM 41.4164 -112.4878 319° Northwest 150 173 8,300 -146 Descending FlightAware ADS-B (KBTF)
Sun 08:34:10 PM 41.4277 -112.5003 320° Northwest 152 175 8,300  Level FlightAware ADS-B (KBTF)
Sun 08:34:29 PM 41.4382 -112.5122 319° Northwest 152 175 8,300 176 Level FlightAware ADS-B (KBTF)
Sun 08:34:44 PM 41.4467 -112.5215 322° Northwest 163 188 8,400  Climbing FlightAware ADS-B
Sun 08:35:05 PM 41.4585 -112.5341 320° Northwest 151 174 8,300 -146 Descending FlightAware ADS-B
Sun 08:35:25 PM 41.4700 -112.5460 320° Northwest 148 170 8,300 150 Level FlightAware ADS-B
Sun 08:35:45 PM 41.4816 -112.5581 319° Northwest 150 173 8,400 154 Climbing FlightAware ADS-B
Sun 08:36:04 PM 41.4921 -112.5697 320° Northwest 153 176 8,400 -150 Level FlightAware ADS-B
Sun 08:36:25 PM 41.5029 -112.5819 321° Northwest 150 173 8,300 -146 Descending FlightAware ADS-B
Sun 08:36:45 PM 41.5144 -112.5936 330° Northwest 153 176 8,300  Level FlightAware ADS-B
Sun 08:37:09 PM 41.5295 -112.6041 333° Northwest 151 174 8,300  Level FlightAware ADS-B (KBTF)
Sun 08:37:30 PM 41.5421 -112.6130 331° Northwest 151 174 8,300  Level FlightAware ADS-B (KBTF)
Sun 08:37:50 PM 41.5542 -112.6223 330° Northwest 151 174 8,300  Level FlightAware ADS-B (KBTF)
Sun 08:38:09 PM 41.5659 -112.6312 330° Northwest 152 175 8,300  Level FlightAware ADS-B (KBTF)
Sun 08:38:27 PM 41.5768 -112.6395 331° Northwest 150 173 8,300  Level FlightAware ADS-B
Sun 08:38:47 PM 41.5891 -112.6488 329° Northwest 148 170 8,300  Level FlightAware ADS-B
Sun 08:39:09 PM 41.6016 -112.6589 327° Northwest 141 162 8,300 140 Level FlightAware ADS-B
Sun 08:39:30 PM 41.6142 -112.6691 326° Northwest 142 163 8,400 143 Climbing FlightAware ADS-B (KBTF)
Sun 08:39:51 PM 41.6264 -112.6793 328° Northwest 155 178 8,400 -146 Level FlightAware ADS-B (KBTF)
Sun 08:40:11 PM 41.6388 -112.6898 326° Northwest 156 180 8,300  Descending FlightAware ADS-B (KBTF)
Sun 08:40:30 PM 41.6512 -112.6998 327° Northwest 154 177 8,400  Climbing FlightAware ADS-B (KBTF)
Sun 08:40:50 PM 41.6639 -112.7104 325° Northwest 155 178 8,300  Descending FlightAware ADS-B (KBTF)
Sun 08:41:11 PM 41.6758 -112.7236 317° Northwest 156 180 8,400 150 Climbing FlightAware ADS-B (KBTF)
Sun 08:41:30 PM 41.6865 -112.7363 316° Northwest 158 182 8,400 -158 Level FlightAware ADS-B (KBTF)
Sun 08:41:49 PM 41.6974 -112.7497 315° West 158 182 8,300  Descending FlightAware ADS-B (KBTF)
Sun 08:42:07 PM 41.7071 -112.7618 315° West 156 180 8,400  Climbing FlightAware ADS-B (KBTF)
Sun 08:42:57 PM 41.7329 -112.7968 315° West 163 188 8,300  Descending FlightAware ADS-B (KBTF)
Sun 08:43:30 PM 41.7491 -112.8212 311° West 156 180 8,400  Climbing FlightAware ADS-B (KBTF)
Sun 08:43:51 PM 41.7586 -112.8360 308° West 153 176 8,300 -150 Descending FlightAware ADS-B (KBTF)
Sun 08:44:10 PM 41.7682 -112.8508 308° West 154 177 8,300 154 Level FlightAware ADS-B (KBTF)
Sun 08:44:30 PM 41.7775 -112.8654 308° West 155 178 8,400  Climbing FlightAware ADS-B (KBTF)
Sun 08:44:49 PM 41.7867 -112.8796 309° West 155 178 8,300  Descending FlightAware ADS-B (KBTF)
Sun 08:45:56 PM 41.8131 -112.9181 309° West 159 183 8,400 47 Climbing Salt Lake Center
Sun 08:46:58 PM 41.8467 -112.9733 309° West 160 184 8,400  Level Salt Lake Center
Sun 08:47:59 PM 41.8703 -113.0272 300° West 160 184 8,400  Level Salt Lake Center
Sun 08:49:01 PM 41.8919 -113.0806 299° West 160 184 8,400 49 Level Salt Lake Center
Sun 08:50:02 PM 41.9172 -113.1322 303° West 161 185 8,500 98 Climbing Salt Lake Center
Sun 08:51:04 PM 41.9456 -113.1775 310° West 161 185 8,600 98 Climbing Salt Lake Center
Sun 08:52:05 PM 41.9739 -113.2186 313° West 158 182 8,700 49 Climbing Salt Lake Center
Sun 08:53:06 PM 42.0028 -113.2614 312° West 155 178 8,700  Level Salt Lake Center
Sun 08:54:08 PM 42.0311 -113.3069 310° West 155 178 8,700  Level Salt Lake Center
Sun 08:55:10 PM 42.0669 -113.3636 310° West 159 183 8,700  Level Salt Lake Center
Sun 08:56:11 PM 42.0953 -113.4119 308° West 160 184 8,700  Level Salt Lake Center
Sun 08:57:13 PM 42.1236 -113.4622 307° West 164 189 8,700  Level Salt Lake Center
Sun 08:58:14 PM 42.1533 -113.5094 310° West 165 190 8,700 49 Level Salt Lake Center
Sun 08:59:16 PM 42.1842 -113.5544 313° West 165 190 8,800 49 Climbing Salt Lake Center
Sun 09:00:17 PM 42.2147 -113.6028 310° West 165 190 8,800 -49 Level Salt Lake Center
Sun 09:01:18 PM 42.2453 -113.6519 310° West 165 190 8,700  Descending Salt Lake Center
Sun 09:02:20 PM 42.2789 -113.6972 315° West 167 192 8,800  Climbing Salt Lake Center
Sun 09:03:21 PM 42.3161 -113.7500 314° West 167 192 8,700 -31 Descending Salt Lake Center
Sun 09:11:57 PM 42.5969 -114.1556 313° West 169 194 8,500 -21 Descending Salt Lake Center
Sun 09:12:00 PM 42.5672 -114.0324 313° West  Level FlightAware Approximate
Sun 09:12:58 PM 42.6292 -114.1997 315° West 172 198 8,500  Level Salt Lake Center
Sun 09:13:00 PM 42.5943 -114.0721 313° West  Level FlightAware Approximate
Sun 09:14:00 PM 42.6214 -114.1117 313° West  Level FlightAware Approximate
Sun 09:14:00 PM 42.6628 -114.2475 314° West 171 197 8,500  Level Salt Lake Center
Sun 09:15:00 PM 42.6485 -114.1514 313° West  Level FlightAware Approximate
Sun 09:15:01 PM 42.6978 -114.2967 314° West 171 197 8,500  Level Salt Lake Center
Sun 09:16:00 PM 42.6755 -114.1911 313° West  Level FlightAware Approximate
Sun 09:16:02 PM 42.7303 -114.3461 312° West 171 197 8,500  Level Salt Lake Center
Sun 09:17:00 PM 42.7026 -114.2309 313° West  Level FlightAware Approximate
Sun 09:17:04 PM 42.7614 -114.3889 315° West 170 196 8,500  Level Salt Lake Center
Sun 09:18:05 PM 42.7944 -114.4378 313° West 169 194 8,500  Level Salt Lake Center
Sun 09:19:07 PM 42.8278 -114.4856 314° West 169 194 8,500  Level Salt Lake Center
Sun 09:20:08 PM 42.8564 -114.5289 312° West 164 189 8,500  Level Salt Lake Center
Sun 09:21:09 PM 42.8917 -114.5792 314° West 169 194 8,500  Level Salt Lake Center
Sun 09:22:11 PM 42.9264 -114.6281 314° West 173 199 8,500  Level Salt Lake Center
Sun 09:23:12 PM 42.9589 -114.6769 312° West 172 198 8,500  Level Salt Lake Center
Sun 09:24:13 PM 42.9872 -114.7183 313° West 171 197 8,500  Level Salt Lake Center
Sun 09:26:16 PM 43.0586 -114.8228 313° West 210 242 8,500  Level Salt Lake Center
Sun 09:27:17 PM 43.0853 -114.8636 312° West 185 213 8,500  Level Salt Lake Center
Sun 09:28:55 PM 43.1469 -114.9536 313° West 153 176 8,500  Level Salt Lake Center
Sun 09:29:57 PM 43.1800 -115.0022 313° West 182 209 8,500  Level Salt Lake Center
Sun 09:30:58 PM 43.2144 -115.0536 313° West 181 208 8,500  Level Salt Lake Center
Sun 09:31:59 PM 43.2486 -115.1033 313° West 176 203 8,500  Level Salt Lake Center
Sun 09:33:01 PM 43.2803 -115.1508 312° West 175 201 8,500  Level Salt Lake Center
Sun 09:35:15 PM 43.3519 -115.2583 313° West 163 188 8,500  Level Salt Lake Center
Sun 09:36:17 PM 43.3842 -115.3072 312° West 162 186 8,500  Level Salt Lake Center
Sun 09:37:18 PM 43.4175 -115.3558 313° West 166 191 8,500 -31 Level Salt Lake Center
Sun 09:42:46 PM 43.5941 -115.6200 312° West 173 199 8,300 -35 Descending FlightAware ADS-B
Sun 09:43:04 PM 43.6040 -115.6350 313° West 172 198 8,300  Level FlightAware ADS-B
Sun 09:43:25 PM 43.6151 -115.6517 313° West 169 194 8,300 26 Level FlightAware ADS-B
Sun 09:46:54 PM 43.7243 -115.8172 313° West 169 194 8,400  Climbing FlightAware ADS-B
Sun 09:47:15 PM 43.7353 -115.8340 313° West 171 197 8,300 -146 Descending FlightAware ADS-B
Sun 09:47:35 PM 43.7459 -115.8502 313° West 170 196 8,300 150 Level FlightAware ADS-B
Sun 09:47:55 PM 43.7565 -115.8662 313° West 169 194 8,400  Climbing FlightAware ADS-B
Sun 09:48:08 PM 43.7631 -115.8763 313° West 169 194 8,300  Descending FlightAware ADS-B
Sun 09:50:16 PM 43.8312 -115.9803 312° West 170 196 8,400  Climbing FlightAware ADS-B
Sun 09:50:37 PM 43.8419 -115.9967 312° West 170 196 8,300  Descending FlightAware ADS-B
Sun 09:51:34 PM 43.8725 -116.0436 313° West 171 197 8,400  Climbing FlightAware ADS-B
Sun 09:51:55 PM 43.8838 -116.0609 312° West 172 198 8,300 -146 Descending FlightAware ADS-B
Sun 09:52:15 PM 43.8941 -116.0767 312° West 169 194 8,300 146 Level FlightAware ADS-B
Sun 09:52:36 PM 43.9049 -116.0934 313° West 164 189 8,400 150 Climbing FlightAware ADS-B
Sun 09:52:55 PM 43.9153 -116.1093 313° West 167 192 8,400  Level FlightAware ADS-B
Sun 09:53:16 PM 43.9258 -116.1252 313° West 169 194 8,400 -154 Level FlightAware ADS-B
Sun 09:53:34 PM 43.9358 -116.1407 312° West 172 198 8,300 -158 Descending FlightAware ADS-B
Sun 09:53:54 PM 43.9463 -116.1569 312° West 173 199 8,300  Level FlightAware ADS-B
Sun 09:54:14 PM 43.9571 -116.1736 312° West 174 200 8,300 146 Level FlightAware ADS-B
Sun 09:54:35 PM 43.9688 -116.1915 312° West 177 204 8,400  Climbing FlightAware ADS-B
Sun 09:54:55 PM 43.9793 -116.2076 313° West 178 205 8,300 -150 Descending FlightAware ADS-B
Sun 09:55:15 PM 43.9905 -116.2249 312° West 178 205 8,300 150 Level FlightAware ADS-B
Sun 09:55:35 PM 44.0014 -116.2419 312° West 179 206 8,400  Climbing FlightAware ADS-B
Sun 09:55:54 PM 44.0121 -116.2584 313° West 181 208 8,300 -150 Descending FlightAware ADS-B
Sun 09:56:15 PM 44.0241 -116.2769 313° West 181 208 8,300  Level FlightAware ADS-B
Sun 09:56:34 PM 44.0350 -116.2937 312° West 179 206 8,300  Level FlightAware ADS-B
Sun 09:56:56 PM 44.0463 -116.3112 313° West 177 204 8,300  Level FlightAware ADS-B
Sun 09:57:15 PM 44.0573 -116.3283 312° West 174 200 8,300  Level FlightAware ADS-B
Sun 09:57:34 PM 44.0673 -116.3439 312° West 171 197 8,300  Level FlightAware ADS-B
Sun 09:57:55 PM 44.0785 -116.3613 312° West 170 196 8,300  Level FlightAware ADS-B
Sun 09:58:15 PM 44.0889 -116.3773 312° West 172 198 8,300  Level FlightAware ADS-B
Sun 09:58:34 PM 44.0994 -116.3936 312° West 174 200 8,300  Level FlightAware ADS-B
Sun 09:58:54 PM 44.1100 -116.4100 312° West 175 201 8,300  Level FlightAware ADS-B
Sun 09:59:15 PM 44.1211 -116.4272 312° West 177 204 8,300 146 Level FlightAware ADS-B
Sun 09:59:35 PM 44.1324 -116.4447 312° West 178 205 8,400 150 Climbing FlightAware ADS-B
Sun 09:59:55 PM 44.1435 -116.4620 312° West 179 206 8,400 -150 Level FlightAware ADS-B
Sun 10:00:15 PM 44.1543 -116.4787 312° West 178 205 8,300 -150 Descending FlightAware ADS-B
Sun 10:00:35 PM 44.1657 -116.4966 312° West 177 204 8,300  Level FlightAware ADS-B
Sun 10:00:54 PM 44.1758 -116.5125 312° West 176 203 8,300  Level FlightAware ADS-B
Sun 10:01:15 PM 44.1867 -116.5296 312° West 176 203 8,300  Level FlightAware ADS-B
Sun 10:01:36 PM 44.1983 -116.5476 312° West 178 205 8,300  Level FlightAware ADS-B
Sun 10:01:55 PM 44.2092 -116.5646 312° West 179 206 8,300  Level FlightAware ADS-B
Sun 10:02:15 PM 44.2201 -116.5816 312° West 179 206 8,300  Level FlightAware ADS-B
Sun 10:02:35 PM 44.2313 -116.5991 312° West 179 206 8,300  Level FlightAware ADS-B
Sun 10:02:55 PM 44.2423 -116.6162 312° West 179 206 8,300  Level FlightAware ADS-B
Sun 10:03:15 PM 44.2534 -116.6338 312° West 180 207 8,300  Level FlightAware ADS-B
Sun 10:03:34 PM 44.2635 -116.6496 312° West 180 207 8,300  Level FlightAware ADS-B
Sun 10:03:54 PM 44.2749 -116.6674 312° West 180 207 8,300  Level FlightAware ADS-B
Sun 10:04:15 PM 44.2864 -116.6855 312° West 180 207 8,300  Level FlightAware ADS-B
Sun 10:04:34 PM 44.2972 -116.7023 312° West 179 206 8,300 150 Level FlightAware ADS-B
Sun 10:04:55 PM 44.3088 -116.7205 312° West 181 208 8,400  Climbing FlightAware ADS-B
Sun 10:05:15 PM 44.3200 -116.7380 312° West 183 211 8,300 -158 Descending FlightAware ADS-B
Sun 10:05:33 PM 44.3301 -116.7539 312° West 183 211 8,300  Level FlightAware ADS-B
Sun 10:05:55 PM 44.3423 -116.7730 312° West 181 208 8,300  Level FlightAware ADS-B
Sun 10:06:15 PM 44.3535 -116.7908 312° West 182 209 8,300  Level FlightAware ADS-B
Sun 10:06:34 PM 44.3639 -116.8072 312° West 181 208 8,300  Level FlightAware ADS-B
Sun 10:06:54 PM 44.3753 -116.8251 312° West 180 207 8,300  Level FlightAware ADS-B
Sun 10:07:14 PM 44.3865 -116.8428 312° West 180 207 8,300  Level FlightAware ADS-B
Sun 10:07:34 PM 44.3969 -116.8592 312° West 179 206 8,300  Level FlightAware ADS-B
Sun 10:07:55 PM 44.4089 -116.8782 312° West 180 207 8,300  Level FlightAware ADS-B
Sun 10:08:15 PM 44.4198 -116.8952 312° West 179 206 8,300  Level FlightAware ADS-B
Sun 10:08:35 PM 44.4310 -116.9130 312° West 181 208 8,300 150 Level FlightAware ADS-B
Sun 10:08:55 PM 44.4419 -116.9302 312° West 181 208 8,400  Climbing FlightAware ADS-B
Sun 10:09:14 PM 44.4525 -116.9471 312° West 179 206 8,300 -154 Descending FlightAware ADS-B
Sun 10:09:34 PM 44.4639 -116.9651 312° West 177 204 8,300  Level FlightAware ADS-B
Sun 10:09:55 PM 44.4748 -116.9824 312° West 175 201 8,300  Level FlightAware ADS-B
Sun 10:10:14 PM 44.4852 -116.9988 312° West 175 201 8,300  Level FlightAware ADS-B
Sun 10:10:35 PM 44.4965 -117.0167 312° West 177 204 8,300 150 Level FlightAware ADS-B
Sun 10:10:54 PM 44.5067 -117.0330 312° West 175 201 8,400  Climbing FlightAware ADS-B
Sun 10:11:13 PM 44.5171 -117.0494 312° West 172 198 8,300 -154 Descending FlightAware ADS-B
Sun 10:11:33 PM 44.5276 -117.0663 312° West 170 196 8,300  Level FlightAware ADS-B
Sun 10:11:56 PM 44.5388 -117.0841 312° West 163 188 8,300  Level FlightAware ADS-B
Sun 10:12:14 PM 44.5480 -117.0989 312° West 163 188 8,300  Level FlightAware ADS-B
Sun 10:12:35 PM 44.5586 -117.1157 312° West 163 188 8,300  Level FlightAware ADS-B
Sun 10:12:55 PM 44.5684 -117.1311 312° West 162 186 8,300  Level FlightAware ADS-B
Sun 10:13:15 PM 44.5781 -117.1466 312° West 159 183 8,300  Level FlightAware ADS-B
Sun 10:13:34 PM 44.5877 -117.1621 311° West 160 184 8,300 154 Level FlightAware ADS-B
Sun 10:13:54 PM 44.5972 -117.1770 312° West 162 186 8,400  Climbing FlightAware ADS-B
Sun 10:14:14 PM 44.6074 -117.1933 312° West 163 188 8,300 -154 Descending FlightAware ADS-B
Sun 10:14:33 PM 44.6171 -117.2087 312° West 165 190 8,300 146 Level FlightAware ADS-B
Sun 10:14:55 PM 44.6281 -117.2263 312° West 165 190 8,400  Climbing FlightAware ADS-B
Sun 10:15:13 PM 44.6375 -117.2414 311° West 166 191 8,300 -158 Descending FlightAware ADS-B
Sun 10:15:33 PM 44.6472 -117.2571 312° West 168 193 8,300  Level FlightAware ADS-B
Sun 10:15:55 PM 44.6588 -117.2756 312° West 171 197 8,300  Level FlightAware ADS-B
Sun 10:16:15 PM 44.6691 -117.2920 312° West 172 198 8,300  Level FlightAware ADS-B
Sun 10:16:35 PM 44.6800 -117.3096 311° West 172 198 8,300  Level FlightAware ADS-B
Sun 10:16:55 PM 44.6903 -117.3261 312° West 171 197 8,300 154 Level FlightAware ADS-B
Sun 10:17:14 PM 44.7004 -117.3423 312° West 171 197 8,400 154 Climbing FlightAware ADS-B
Sun 10:17:34 PM 44.7107 -117.3587 312° West 173 199 8,400 -150 Level FlightAware ADS-B
Sun 10:17:54 PM 44.7175 -117.3698 312° West 173 199 8,300  Descending FlightAware ADS-B
Sun 10:18:14 PM 44.7321 -117.3933 312° West 174 200 8,400 111 Climbing FlightAware ADS-B
Sun 10:18:48 PM 44.7493 -117.4209 312° West 174 200 8,400 -1 Level FlightAware ADS-B
Sun 10:21:00 PM 44.8128 -117.5145 314° West  Level FlightAware Approximate
Sun 10:22:00 PM 44.8417 -117.5571 314° West  Level FlightAware Approximate
Sun 10:23:00 PM 44.8705 -117.5998 314° West  Level FlightAware Approximate
Sun 10:24:00 PM 44.8994 -117.6425 314° West  Level FlightAware Approximate
Sun 10:25:00 PM 44.9282 -117.6853 314° West  Level FlightAware Approximate
Sun 10:26:00 PM 44.9570 -117.7281 314° West  Level FlightAware Approximate
Sun 10:27:00 PM 44.9858 -117.7709 314° West  Level FlightAware Approximate
Sun 10:28:00 PM 45.0145 -117.8138 314° West  Level FlightAware Approximate
Sun 10:29:00 PM 45.0433 -117.8567 313° West  Level FlightAware Approximate
Sun 10:30:00 PM 45.0720 -117.8997 313° West  Level FlightAware Approximate
Sun 10:31:00 PM 45.1007 -117.9427 313° West  Level FlightAware Approximate
Sun 10:32:00 PM 45.1294 -117.9858 313° West  Level FlightAware Approximate
Sun 10:33:00 PM 45.1578 -118.0302 309° West  Level FlightAware Approximate
Sun 10:34:00 PM 45.1843 -118.0760 309° West  Level FlightAware Approximate
Sun 10:35:00 PM 45.2108 -118.1219 309° West  Level FlightAware Approximate
Sun 10:36:00 PM 45.2373 -118.1679 309° West  Level FlightAware Approximate
Sun 10:37:00 PM 45.2637 -118.2139 309° West  Level FlightAware Approximate
Sun 10:38:00 PM 45.2901 -118.2599 309° West  Level FlightAware Approximate
Sun 10:39:00 PM 45.3165 -118.3060 309° West  Level FlightAware Approximate
Sun 10:40:00 PM 45.3429 -118.3521 309° West  Level FlightAware Approximate
Sun 10:41:00 PM 45.3693 -118.3982 309° West  Level FlightAware Approximate
Sun 10:42:00 PM 45.3956 -118.4444 309° West  Level FlightAware Approximate
Sun 10:43:00 PM 45.4219 -118.4907 309° West  Level FlightAware Approximate
Sun 10:44:00 PM 45.4483 -118.5370 309° West  Level FlightAware Approximate
Sun 10:45:00 PM 45.4745 -118.5833 309° West  Level FlightAware Approximate
Sun 10:46:00 PM 45.5008 -118.6297 309° West  Level FlightAware Approximate
Sun 10:47:00 PM 45.5271 -118.6761 309° West  Level FlightAware Approximate
Sun 10:48:00 PM 45.5535 -118.7223 311° West  Level FlightAware Approximate
Sun 10:49:00 PM 45.5811 -118.7671 311° West  Level FlightAware Approximate
Sun 10:50:00 PM 45.6088 -118.8119 311° West  Level FlightAware Approximate
Sun 10:51:00 PM 45.6364 -118.8568 311° West  Level FlightAware Approximate
Sun 10:52:00 PM 45.6640 -118.9017 311° West  Level FlightAware Approximate
Sun 10:53:00 PM 45.6912 -118.9470 310° West  Level FlightAware Approximate
Sun 10:54:00 PM 45.7178 -118.9932 310° West  Level FlightAware Approximate
Sun 10:55:00 PM 45.7444 -119.0394 310° West  Level FlightAware Approximate
Sun 10:56:00 PM 45.7710 -119.0857 309° West  Level FlightAware Approximate
Sun 10:57:00 PM 45.7975 -119.1320 309° West  Level FlightAware Approximate
Sun 10:58:00 PM 45.8241 -119.1783 309° West  Level FlightAware Approximate
Sun 10:59:00 PM 45.8506 -119.2247 309° West  Level FlightAware Approximate
Sun 11:00:00 PM 45.8770 -119.2711 309° West  Level FlightAware Approximate
Sun 11:01:00 PM 45.9035 -119.3176 309° West  Level FlightAware Approximate
Sun 11:02:00 PM 45.9300 -119.3641 309° West  Level FlightAware Approximate
Sun 11:03:00 PM 45.9564 -119.4107 309° West  Level FlightAware Approximate
Sun 11:04:00 PM 45.9828 -119.4573 309° West  Level FlightAware Approximate
Sun 11:05:00 PM 46.0092 -119.5040 309° West  Level FlightAware Approximate
Sun 11:06:00 PM 46.0356 -119.5507 309° West  Level FlightAware Approximate
Sun 11:07:00 PM 46.0620 -119.5974 309° West  Level FlightAware Approximate
Sun 11:08:00 PM 46.0883 -119.6442 309° West  Level FlightAware Approximate
Sun 11:09:00 PM 46.1146 -119.6910 309° West  Level FlightAware Approximate
Sun 11:10:00 PM 46.1409 -119.7379 309° West  Level FlightAware Approximate
Sun 11:11:00 PM 46.1672 -119.7848 309° West  Level FlightAware Approximate
Sun 11:12:00 PM 46.1934 -119.8318 309° West  Level FlightAware Approximate
Sun 11:13:00 PM 46.2197 -119.8788 309° West  Level FlightAware Approximate
Sun 11:14:00 PM 46.2459 -119.9259 309° West  Level FlightAware Approximate
Sun 11:15:00 PM 46.2721 -119.9730 309° West  Level FlightAware Approximate
Sun 11:16:00 PM 46.2983 -120.0201 309° West  Level FlightAware Approximate
Sun 11:17:00 PM 46.3245 -120.0673 309° West  Level FlightAware Approximate
Sun 11:18:00 PM 46.3506 -120.1145 309° West  Level FlightAware Approximate
Sun 11:19:00 PM 46.3768 -120.1617 309° West  Level FlightAware Approximate
Sun 11:20:00 PM 46.4030 -120.2089 309° West  Level FlightAware Approximate
Sun 11:21:00 PM 46.4292 -120.2562 309° West  Level FlightAware Approximate
Sun 11:22:00 PM 46.4553 -120.3036 309° West  Level FlightAware Approximate
Sun 11:23:00 PM 46.4814 -120.3510 309° West  Level FlightAware Approximate
Sun 11:24:00 PM 46.5075 -120.3984 309° West  Level FlightAware Approximate
Sun 11:25:00 PM 46.5336 -120.4459 309° West  Level FlightAware Approximate
Sun 11:26:00 PM 46.5596 -120.4934 309° West  Level FlightAware Approximate
Sun 11:27:00 PM 46.5857 -120.5410 309° West  Level FlightAware Approximate
Sun 11:28:00 PM 46.6117 -120.5886 309° West  Level FlightAware Approximate
Sun 11:28:32 PM 46.9710 -121.2840 306° West 184 212 8,300  Level FlightAware ADS-B
Sun 11:29:00 PM 46.6377 -120.6363 308° West  Level FlightAware Approximate
Sun 11:30:00 PM 46.6637 -120.6840 308° West  Level FlightAware Approximate
Sun 11:31:00 PM 46.6896 -120.7317 308° West  Level FlightAware Approximate
Sun 11:32:00 PM 46.7155 -120.7795 308° West  Level FlightAware Approximate
Sun 11:33:00 PM 46.7415 -120.8273 308° West  Level FlightAware Approximate
Sun 11:33:47 PM 47.1334 -121.6110 306° West 198 228 7,300  Level FlightAware ADS-B
Sun 11:34:07 PM 47.1439 -121.6330 306° West 198 228 7,100 -615 Descending FlightAware ADS-B
Sun 11:34:26 PM 47.1543 -121.6540 306° West 198 228 6,900 -686 Descending FlightAware ADS-B
Sun 11:34:42 PM 47.1626 -121.6710 306° West 198 228 6,700 -774 Descending FlightAware ADS-B
Sun 11:34:57 PM 47.1709 -121.6870 306° West 198 228 6,500 -724 Descending FlightAware ADS-B
Sun 11:35:40 PM 47.1936 -121.7340 306° West 198 228 6,000 -696 Descending FlightAware ADS-B
Sun 11:36:49 PM 47.2306 -121.8090 306° West 198 228 5,200 -688 Descending FlightAware ADS-B
Sun 11:37:16 PM 47.2451 -121.8390 306° West 200 230 4,900 -714 Descending FlightAware ADS-B
Sun 11:37:31 PM 47.2534 -121.8560 306° West 199 229 4,700 -774 Descending FlightAware ADS-B
Sun 11:37:47 PM 47.2621 -121.8730 306° West 199 229 4,500 -750 Descending FlightAware ADS-B
Sun 11:38:03 PM 47.2702 -121.8900 306° West 196 226 4,300 -750 Descending FlightAware ADS-B
Sun 11:38:11 PM 47.2745 -121.8990 306° West 194 223 4,200 -679 Descending FlightAware ADS-B
Sun 11:38:56 PM 47.2981 -121.9470 306° West 194 223 3,700 -643 Descending FlightAware ADS-B
Sun 11:39:35 PM 47.3186 -121.9900 306° West 197 227 3,300 -643 Descending FlightAware ADS-B
Sun 11:39:52 PM 47.3278 -122.0080 306° West 196 226 3,100 -800 Descending FlightAware ADS-B
Sun 11:40:20 PM 47.3425 -122.0390 306° West 196 226 2,700 -783 Descending FlightAware ADS-B
Sun 11:40:38 PM 47.3521 -122.0580 305° West 195 224 2,500 -706 Descending FlightAware ADS-B
Sun 11:40:54 PM 47.3600 -122.0750 306° West 194 223 2,300 -581 Descending FlightAware ADS-B
Sun 11:41:09 PM 47.3682 -122.0920 306° West 194 223 2,200 -480 Descending FlightAware ADS-B
Sun 11:41:19 PM 47.3730 -122.1020 305° West 194 223 2,100 -720 Descending FlightAware ADS-B
Sun 11:41:34 PM 47.3810 -122.1180 306° West 193 222 1,900 -889 Descending FlightAware ADS-B
Sun 11:41:46 PM 47.3873 -122.1310 306° West 190 219 1,700 -783 Descending FlightAware ADS-B
Sun 11:41:57 PM 47.3929 -122.1420 306° West 183 211 1,600 -500 Descending FlightAware ADS-B
Sun 11:42:10 PM 47.3992 -122.1550 309° West 175 201 1,500 -545 Descending FlightAware ADS-B
Sun 11:42:19 PM 47.4038 -122.1630 310° West 170 196 1,400 -571 Descending FlightAware ADS-B
Sun 11:42:31 PM 47.4094 -122.1730 310° West 160 184 1,300 -571 Descending FlightAware ADS-B
Sun 11:42:40 PM 47.4138 -122.1800 312° West 154 177 1,200 -286 Descending FlightAware ADS-B
Sun 11:42:52 PM 47.4198 -122.1900 313° West 149 171 1,200 -273 Level FlightAware ADS-B
Sun 11:43:02 PM 47.4242 -122.1970 314° West 146 168 1,100 -273 Descending FlightAware ADS-B
Sun 11:43:14 PM 47.4301 -122.2060 315° West 139 160 1,100 -273 Level FlightAware ADS-B
Sun 11:43:24 PM 47.4342 -122.2120 317° Northwest 134 154 1,000 -333 Descending FlightAware ADS-B
Sun 11:43:32 PM 47.4382 -122.2170 319° Northwest 130 150 1,000 -316 Level FlightAware ADS-B
Sun 11:43:43 PM 47.4430 -122.2230 321° Northwest 127 146 900 -300 Descending FlightAware ADS-B
Sun 11:43:52 PM 47.4472 -122.2270 324° Northwest 121 139 900 -240 Level FlightAware ADS-B
Sun 11:44:08 PM 47.4542 -122.2340 325° Northwest 117 135 800 -240 Descending FlightAware ADS-B
Sun 11:44:17 PM 47.4582 -122.2390 324° Northwest 117 135 800 -353 Level FlightAware ADS-B
Sun 11:44:25 PM 47.4619 -122.2420 326° Northwest 116 133 700 -429 Descending FlightAware ADS-B
Sun 11:44:31 PM 47.4646 -122.2450 327° Northwest 115 132 700  Level FlightAware ADS-B
Sun 11:44:41 PM 47.4692 -122.2490 328° Northwest 114 131 700  Level FlightAware ADS-B
Sun 11:44:47 PM 47.4719 -122.2520 329° Northwest 111 128 700  Level FlightAware ADS-B
Sun 11:44:52 PM 47.4736 -122.2530 331° Northwest 106 122 700  Level FlightAware ADS-B
Sun 11:45:12 PM 47.4817 -122.2600 329° Northwest 92 106 700  Level FlightAware ADS-B
Sun 11:45:21 PM 47.4847 -122.2620 329° Northwest 87 100 700 -333 Level FlightAware ADS-B
Sun 11:45:30 PM 47.4876 -122.2650 330° Northwest 80 92 600 -667 Descending FlightAware ADS-B
Sun 11:48:00 PM 47.5167 -122.3000 307° West  Level FlightAware Approximate
Sun 11:49:00 PM 47.5300 -122.3020 180° South  Level Estimated
Sun 11:50:00 PM 47.5300 -122.3020 174° South  Level Estimated
Sun 11:51:00 PM 47.5300 -122.3020 307° West  Level Estimated
Sun 11:52:00 PM 47.5300 -122.3020 174° South  Level Estimated
Sun 11:53:00 PM 47.5300 -122.3020 174° South  Level Estimated
Sun 11:54:00 PM 47.5300 -122.3020 307° West  Level Estimated
Sun 11:55:00 PM 47.5300 -122.3020 174° South  Level Estimated
Sun 11:56:00 PM 47.5300 -122.3020 174° South  Level Estimated
Sun 11:57:00 PM 47.5300 -122.3020 307° West  Level Estimated
Sun 11:58:00 PM 47.5300 -122.3020 174° South  Level Estimated
Sun 11:59:00 PM 47.5300 -122.3020 174° South  Level Estimated
Mon 12:00:00 AM 47.5300 -122.3020 307° West  Level Estimated
Mon 12:01:00 AM 47.5300 -122.3020 174° South  Level Estimated
Mon 12:02:00 AM 47.5300 -122.3020 174° South  Level Estimated
Mon 12:03:00 AM 47.5300 -122.3020 307° West  Level Estimated
Mon 12:04:00 AM 47.5300 -122.3020 174° South  Level Estimated
Mon 12:05:00 AM 47.5300 -122.3020 174° South  Level Estimated
Mon 12:06:00 AM 47.5300 -122.3020 307° West  Level Estimated
Mon 12:07:00 AM 47.5300 -122.3020 174° South  Level Estimated
Mon 12:08:00 AM 47.5300 -122.3020 174° South  Level Estimated
Mon 12:09:00 AM 47.5300 -122.3020 307° West  Level Estimated
Mon 12:10:00 AM 47.5300 -122.3020 174° South  Level Estimated
Mon 12:11:00 AM 47.5300 -122.3020 174° South  Level Estimated
Mon 12:12:00 AM 47.5300 -122.3020 307° West  Level Estimated
Mon 12:13:00 AM 47.5300 -122.3020 174° South  Level Estimated
Mon 12:14:00 AM 47.5300 -122.3020 174° South  Level Estimated
Mon 12:15:00 AM 47.5300 -122.3020 307° West  Level Estimated
Mon 12:16:00 AM 47.5300 -122.3020 174° South  Level Estimated
Mon 12:17:00 AM 47.5300 -122.3020 174° South  Level Estimated
Mon 12:18:00 AM 47.5300 -122.3020 307° West  Level Estimated
Mon 12:19:00 AM 47.5300 -122.3020 174° South  Level Estimated
Mon 12:20:00 AM 47.5300 -122.3020 174° South  Level Estimated
Mon 12:21:00 AM 47.5300 -122.3020 307° West  Level Estimated
Mon 12:22:00 AM 47.5300 -122.3020 174° South  Level Estimated
Mon 12:23:00 AM 47.5300 -122.3020 174° South  Level Estimated
Mon 12:24:00 AM 47.5300 -122.3020 307° West  Level Estimated
Mon 12:25:00 AM 47.5300 -122.3020 174° South  Level Estimated
Mon 12:26:00 AM 47.5300 -122.3020 174° South  Level Estimated
Mon 12:27:00 AM 47.5300 -122.3020 307° West  Level Estimated
Mon 12:28:00 AM 47.5300 -122.3020 174° South  Level Estimated
Mon 12:29:00 AM 47.5300 -122.3020 174° South  Level Estimated
Mon 12:30:00 AM 47.5300 -122.3020 307° West  Level Estimated
Mon 12:31:00 AM 47.5300 -122.3020 174° South  Level Estimated
Mon 12:32:00 AM 47.5300 -122.3020 174° South  Level Estimated
Mon 12:33:00 AM 47.5300 -122.3020 307° West  Level Estimated
Mon 12:34:00 AM 47.5300 -122.3020 174° South  Level Estimated
Mon 12:35:00 AM 47.5300 -122.3020 174° South  Level Estimated
Mon 12:36:00 AM 47.5300 -122.3020 307° West  Level Estimated
Mon 12:37:00 AM 47.5300 -122.3020 174° South  Level Estimated
Mon 12:38:00 AM 47.5300 -122.3020 174° South  Level Estimated
Mon 12:39:00 AM 47.5300 -122.3020 307° West  Level Estimated
Mon 12:40:00 AM 47.5300 -122.3020 174° South  Level Estimated
Mon 12:41:00 AM 47.5300 -122.3020 174° South  Level Estimated
Mon 12:42:00 AM 47.5300 -122.3020 307° West  Level Estimated
Mon 12:43:00 AM 47.5300 -122.3020 174° South  Level Estimated

Login

Don't have an account? Register now (free) for customized features, flight alerts, and more!